Time;durP1;ratioP1;P1;durP2;ratioP2;P2;SDS_P1;SDS_P2;PMS_P1;PMS_P2;Temp;Humidity;BMP_temperature;BMP_pressure;BME280_temperature;BME280_humidity;BME280_pressure;Samples;Min_cycle;Max_cycle;Signal;HPM_P1;HPM_P2
2023/04/23 00:00:40;;;;;;;14.85;9.02;;;20.60;58.40;;;;;;10486670;28;20056;-23
2023/04/23 00:05:44;;;;;;;18.63;9.48;;;20.50;59.00;;;;;;10481032;28;20472;-23
2023/04/23 00:10:48;;;;;;;12.45;6.93;;;20.60;59.00;;;;;;10483976;28;20131;-23
2023/04/23 00:15:50;;;;;;;15.45;9.48;;;20.50;58.90;;;;;;10485133;28;20139;-24
2023/04/23 00:20:52;;;;;;;16.58;8.27;;;20.50;58.90;;;;;;10493011;28;20485;-22
2023/04/23 00:25:56;;;;;;;18.15;9.93;;;20.40;59.10;;;;;;10467561;28;20155;-24
2023/04/23 00:30:57;;;;;;;16.08;9.93;;;20.40;59.10;;;;;;10488379;28;20485;-24
2023/04/23 00:35:59;;;;;;;18.05;9.32;;;20.40;59.10;;;;;;10485968;28;20048;-24
2023/04/23 00:41:02;;;;;;;20.75;10.73;;;20.40;59.10;;;;;;10481059;28;20072;-24
2023/04/23 00:46:05;;;;;;;19.52;10.77;;;20.40;58.90;;;;;;10493816;28;20197;-23
2023/04/23 00:51:07;;;;;;;18.15;9.55;;;20.40;58.70;;;;;;10494452;28;20463;-24
2023/04/23 00:56:11;;;;;;;19.52;11.20;;;20.30;58.90;;;;;;10473922;28;20057;-25
2023/04/23 01:01:13;;;;;;;17.33;10.13;;;20.30;58.90;;;;;;10490516;28;20422;-23
2023/04/23 01:06:16;;;;;;;17.67;9.82;;;20.30;59.10;;;;;;10479607;28;20528;-24
2023/04/23 01:11:19;;;;;;;18.45;11.43;;;20.20;59.10;;;;;;10479772;28;20154;-24
2023/04/23 01:16:21;;;;;;;14.82;9.18;;;20.30;59.10;;;;;;10482743;28;20049;-23
2023/04/23 01:21:24;;;;;;;15.65;9.55;;;20.20;59.10;;;;;;10491708;28;20047;-24
2023/04/23 01:26:27;;;;;;;15.73;8.05;;;20.20;59.30;;;;;;10473737;28;20068;-21
2023/04/23 01:31:30;;;;;;;16.23;9.00;;;20.20;59.00;;;;;;10489056;28;20128;-24
2023/04/23 01:36:33;;;;;;;12.50;7.38;;;20.20;59.40;;;;;;10484849;28;20102;-23
2023/04/23 01:41:37;;;;;;;12.63;8.20;;;20.20;59.30;;;;;;10492288;28;20048;-23
2023/04/23 01:46:39;;;;;;;10.73;7.18;;;20.20;59.10;;;;;;10499636;28;20127;-24
2023/04/23 01:51:42;;;;;;;13.25;7.47;;;20.10;59.40;;;;;;10493874;28;20051;-22
2023/04/23 01:56:46;;;;;;;10.63;6.85;;;20.10;59.90;;;;;;10484409;28;20048;-24
2023/04/23 02:01:48;;;;;;;13.88;7.75;;;20.10;59.60;;;;;;10497645;28;20470;-23
2023/04/23 02:06:51;;;;;;;12.02;7.53;;;20.10;59.60;;;;;;10512868;28;20036;-24
2023/04/23 02:11:56;;;;;;;8.32;5.95;;;20.00;59.90;;;;;;10496261;28;20400;-23
2023/04/23 02:16:58;;;;;;;10.23;6.40;;;20.10;59.60;;;;;;10500195;28;20109;-24
2023/04/23 02:22:00;;;;;;;10.27;6.72;;;20.10;59.70;;;;;;10510949;28;20131;-24
2023/04/23 02:27:04;;;;;;;;;;;20.00;59.90;;;;;;10503244;28;20041;-24
2023/04/23 02:32:06;;;;;;;9.27;5.88;;;19.70;60.90;;;;;;10490267;28;20376;-24
2023/04/23 02:37:07;;;;;;;;;;;19.80;60.60;;;;;;10493730;28;20489;-24
2023/04/23 02:42:11;;;;;;;11.35;7.40;;;19.90;60.00;;;;;;10492305;28;19967;-23
2023/04/23 02:47:13;;;;;;;12.32;7.18;;;19.90;59.70;;;;;;10483838;28;20543;-23
2023/04/23 02:52:15;;;;;;;12.93;7.50;;;19.90;60.10;;;;;;10496766;28;20079;-23
2023/04/23 02:57:18;;;;;;;12.60;7.43;;;19.90;59.50;;;;;;10502456;28;20564;-22
2023/04/23 03:02:20;;;;;;;9.55;6.15;;;20.00;59.60;;;;;;10490783;28;20084;-23
2023/04/23 03:07:22;;;;;;;12.70;7.47;;;19.90;59.60;;;;;;10489330;28;20075;-23
2023/04/23 03:12:25;;;;;;;9.02;6.05;;;20.00;59.20;;;;;;10490718;28;20068;-22
2023/04/23 03:17:27;;;;;;;8.13;5.65;;;19.90;59.50;;;;;;10488363;28;20122;-23
2023/04/23 03:22:28;;;;;;;12.57;7.60;;;19.90;59.70;;;;;;10505848;28;20546;-23
2023/04/23 03:27:32;;;;;;;13.50;8.40;;;19.70;60.10;;;;;;10491553;28;20132;-23
2023/04/23 03:32:34;;;;;;;10.68;7.03;;;19.80;60.20;;;;;;10519358;28;20136;-23
2023/04/23 03:37:36;;;;;;;9.13;6.00;;;19.90;59.80;;;;;;10491202;28;20059;-23
2023/04/23 03:42:39;;;;;;;13.07;7.00;;;19.90;59.70;;;;;;10505065;28;20045;-23
2023/04/23 03:47:41;;;;;;;10.07;6.65;;;19.90;59.30;;;;;;10485719;28;20045;-25
2023/04/23 03:52:43;;;;;;;8.80;5.80;;;19.90;59.70;;;;;;10478167;28;20130;-24
2023/04/23 03:57:46;;;;;;;9.10;5.30;;;19.80;59.80;;;;;;10489195;28;20485;-23
2023/04/23 04:02:48;;;;;;;6.13;4.47;;;19.80;59.80;;;;;;10487296;28;20049;-22
2023/04/23 04:07:50;;;;;;;12.05;6.57;;;19.80;59.70;;;;;;10483890;28;20140;-22
2023/04/23 04:12:54;;;;;;;12.88;6.95;;;19.80;59.70;;;;;;10477044;28;20079;-23
2023/04/23 04:17:56;;;;;;;8.75;5.82;;;19.80;59.80;;;;;;10495667;28;20045;-24
2023/04/23 04:22:57;;;;;;;10.35;6.35;;;19.80;59.70;;;;;;10493653;28;20090;-23
2023/04/23 04:28:02;;;;;;;11.02;6.80;;;19.80;59.80;;;;;;10496291;28;20044;-23
2023/04/23 04:33:04;;;;;;;8.32;5.45;;;19.80;59.50;;;;;;10497599;28;20079;-22
2023/04/23 04:38:06;;;;;;;10.48;6.85;;;19.70;59.50;;;;;;10487111;28;20398;-22
2023/04/23 04:43:09;;;;;;;10.20;6.38;;;19.70;59.90;;;;;;10489133;28;20041;-23
2023/04/23 04:48:11;;;;;;;11.38;6.82;;;19.70;59.50;;;;;;10490155;28;20055;-22
2023/04/23 04:53:13;;;;;;;9.18;6.43;;;19.70;59.70;;;;;;10489065;28;20048;-23
2023/04/23 04:58:16;;;;;;;9.25;5.60;;;19.70;59.90;;;;;;10505209;28;20080;-23
2023/04/23 05:03:18;;;;;;;11.02;6.43;;;19.50;60.20;;;;;;10495754;28;20527;-22
2023/04/23 05:08:20;;;;;;;11.85;6.75;;;19.70;60.00;;;;;;10499222;28;20068;-22
2023/04/23 05:13:23;;;;;;;10.02;6.60;;;19.70;60.00;;;;;;10489884;28;20056;-23
2023/04/23 05:18:25;;;;;;;9.77;6.10;;;19.60;59.60;;;;;;10512217;28;20504;-22
2023/04/23 05:23:27;;;;;;;11.52;5.63;;;19.70;59.60;;;;;;10498801;28;20075;-24
2023/04/23 05:28:31;;;;;;;8.60;5.68;;;19.80;59.40;;;;;;10506073;28;20047;-23
2023/04/23 05:33:33;;;;;;;9.30;6.40;;;19.70;59.40;;;;;;10493733;28;20457;-23
2023/04/23 05:38:35;;;;;;;;;;;19.80;60.00;;;;;;10503170;28;20067;-22
2023/04/23 05:43:38;;;;;;;6.33;4.63;;;19.80;60.00;;;;;;10505523;28;19970;-24
2023/04/23 05:48:40;;;;;;;6.53;4.50;;;19.80;60.10;;;;;;10498405;28;20071;-22
2023/04/23 05:53:42;;;;;;;;;;;19.90;60.10;;;;;;10499812;28;20493;-23
2023/04/23 05:58:46;;;;;;;5.43;3.65;;;19.80;60.60;;;;;;10487692;28;19935;-23
2023/04/23 06:03:47;;;;;;;6.40;4.68;;;19.80;60.20;;;;;;10494423;28;20045;-23
2023/04/23 06:08:49;;;;;;;7.13;4.60;;;19.70;61.20;;;;;;10484747;28;20171;-23
2023/04/23 06:13:53;;;;;;;5.22;3.72;;;19.80;61.10;;;;;;10500758;28;20515;-24
2023/04/23 06:18:55;;;;;;;3.80;2.83;;;19.60;61.60;;;;;;10487641;28;20080;-23
2023/04/23 06:23:57;;;;;;;3.97;2.63;;;19.50;62.20;;;;;;10498747;28;20481;-23
2023/04/23 06:29:00;;;;;;;7.82;2.80;;;19.40;62.20;;;;;;10495173;28;20041;-23
2023/04/23 06:34:02;;;;;;;4.13;2.63;;;19.30;63.30;;;;;;10498365;28;20052;-24
2023/04/23 06:39:04;;;;;;;4.05;2.58;;;19.20;64.00;;;;;;10471670;28;20048;-22
2023/04/23 06:44:07;;;;;;;4.63;2.67;;;19.40;62.80;;;;;;10486658;28;20083;-24
2023/04/23 06:49:09;;;;;;;7.75;4.07;;;18.90;66.00;;;;;;10492554;28;20041;-23
2023/04/23 06:54:11;;;;;;;8.23;3.83;;;18.90;65.00;;;;;;10484217;28;20124;-24
2023/04/23 06:59:15;;;;;;;4.70;3.38;;;19.00;64.00;;;;;;10483305;28;20092;-23
2023/04/23 07:04:17;;;;;;;6.95;3.67;;;18.80;65.60;;;;;;10493062;28;20155;-24
2023/04/23 07:09:18;;;;;;;6.80;4.63;;;18.50;67.90;;;;;;10474038;28;20084;-23
2023/04/23 07:14:22;;;;;;;7.70;5.43;;;18.00;70.80;;;;;;10472177;28;20155;-23
2023/04/23 07:19:24;;;;;;;7.13;3.83;;;17.50;73.50;;;;;;10477869;28;20151;-22
2023/04/23 07:24:26;;;;;;;3.22;2.45;;;17.50;75.20;;;;;;10482064;28;20139;-22
2023/04/23 07:29:30;;;;;;;4.28;2.45;;;18.80;67.60;;;;;;10484061;28;20504;-23
2023/04/23 07:34:31;;;;;;;8.68;3.25;;;18.50;69.00;;;;;;10476600;28;20056;-23
2023/04/23 07:39:33;;;;;;;5.03;2.95;;;18.90;66.30;;;;;;10488848;28;20135;-23
2023/04/23 07:44:36;;;;;;;4.95;2.30;;;18.10;71.70;;;;;;10477966;28;20411;-23
2023/04/23 07:49:38;;;;;;;7.65;3.47;;;18.90;68.90;;;;;;10472835;28;20169;-21
2023/04/23 07:54:40;;;;;;;4.18;2.25;;;17.70;76.50;;;;;;10487686;28;20103;-23
2023/04/23 07:59:43;;;;;;;6.40;2.90;;;19.10;66.90;;;;;;10477653;28;20060;-24
2023/04/23 08:04:45;;;;;;;17.10;4.32;;;18.80;69.30;;;;;;10474823;28;20072;-23
2023/04/23 08:09:47;;;;;;;9.63;4.53;;;17.20;77.90;;;;;;10480463;28;20051;-23
2023/04/23 08:14:51;;;;;;;5.22;2.60;;;18.20;71.90;;;;;;10488911;28;20044;-23
2023/04/23 08:19:52;;;;;;;7.10;2.20;;;17.40;81.10;;;;;;10474136;28;20140;-21
2023/04/23 08:24:54;;;;;;;10.75;3.85;;;18.00;77.00;;;;;;10480742;28;20131;-22
2023/04/23 08:29:58;;;;;;;7.55;3.30;;;17.70;75.80;;;;;;10478114;28;20507;-24
2023/04/23 08:34:59;;;;;;;11.23;4.50;;;17.70;81.70;;;;;;10488447;28;20135;-23
2023/04/23 08:40:01;;;;;;;6.55;3.65;;;16.30;90.00;;;;;;10498668;28;20117;-23
2023/04/23 08:45:05;;;;;;;5.72;3.45;;;18.70;75.80;;;;;;10513090;28;20592;-24
2023/04/23 08:50:10;;;;;;;9.77;3.83;;;20.10;66.00;;;;;;10521957;28;20550;-25
2023/04/23 08:55:13;;;;;;;8.00;2.97;;;20.30;64.10;;;;;;10494660;28;20095;-23
2023/04/23 09:00:19;;;;;;;5.80;3.38;;;20.60;63.00;;;;;;10493999;28;20056;-23
2023/04/23 09:05:21;;;;;;;4.93;3.15;;;20.60;62.70;;;;;;10493453;28;20049;-24
2023/04/23 09:10:23;;;;;;;8.35;3.40;;;20.40;63.90;;;;;;10516897;28;20055;-22
2023/04/23 09:15:27;;;;;;;4.03;2.53;;;20.50;63.50;;;;;;10515114;28;20538;-23
2023/04/23 09:20:29;;;;;;;4.97;2.92;;;20.90;62.20;;;;;;10497574;28;20135;-23
2023/04/23 09:25:31;;;;;;;6.20;2.78;;;21.00;61.80;;;;;;10512604;28;20044;-22
2023/04/23 09:30:39;;;;;;;8.43;2.80;;;21.00;61.80;;;;;;10500472;28;20131;-23
2023/04/23 09:35:42;;;;;;;4.40;2.63;;;21.00;62.60;;;;;;10502482;28;20044;-23
2023/04/23 09:40:44;;;;;;;4.32;2.50;;;21.10;62.20;;;;;;10498575;28;20057;-23
2023/04/23 09:45:50;;;;;;;6.65;3.25;;;21.60;60.20;;;;;;10484046;28;20056;-24
2023/04/23 09:50:55;;;;;;;2.92;1.75;;;21.50;60.10;;;;;;10479164;28;20131;-23
2023/04/23 09:55:57;;;;;;;6.22;2.88;;;21.20;61.50;;;;;;10491655;28;20055;-24
2023/04/23 10:01:06;;;;;;;2.90;1.95;;;21.40;59.80;;;;;;10502066;28;20083;-23
2023/04/23 10:06:08;;;;;;;5.88;2.63;;;21.60;60.10;;;;;;10492760;28;20049;-23
2023/04/23 10:11:11;;;;;;;7.10;1.95;;;21.40;60.90;;;;;;10489405;28;20458;-24
2023/04/23 10:16:14;;;;;;;4.20;2.00;;;21.50;60.10;;;;;;10492494;28;20045;-24
2023/04/23 10:21:17;;;;;;;4.68;1.95;;;21.60;60.10;;;;;;10471369;28;20521;-22
2023/04/23 10:26:22;;;;;;;5.90;2.03;;;21.40;61.10;;;;;;10490386;28;20466;-24
2023/04/23 10:31:26;;;;;;;6.47;3.05;;;21.40;61.80;;;;;;10496797;28;20072;-23
2023/04/23 10:36:28;;;;;;;8.85;2.45;;;21.50;60.50;;;;;;10477020;28;20487;-23
2023/04/23 10:41:36;;;;;;;3.53;1.92;;;21.20;62.10;;;;;;10476499;28;20053;-22
2023/04/23 10:46:49;;;;;;;8.52;2.60;;;21.50;60.90;;;;;;10490220;28;20493;-23
2023/04/23 10:51:59;;;;;;;8.82;2.38;;;20.50;64.50;;;;;;10485296;28;20048;-24
2023/04/23 10:57:03;;;;;;;6.78;3.33;;;21.60;61.20;;;;;;10486822;28;20040;-24
2023/04/23 11:02:11;;;;;;;6.95;2.33;;;20.70;60.70;;;;;;10489676;28;20459;-24
2023/04/23 11:07:13;;;;;;;3.75;1.83;;;20.40;67.30;;;;;;10488205;28;20127;-24
2023/04/23 11:12:30;;;;;;;;;;;20.60;66.60;;;;;;10477364;28;20127;-23
2023/04/23 11:18:01;;;;;;;7.15;2.53;;;20.90;62.90;;;;;;10491821;28;19936;-24
2023/04/23 11:23:06;;;;;;;3.00;1.67;;;19.80;65.10;;;;;;10493706;28;20481;-24
2023/04/23 11:28:08;;;;;;;4.47;2.03;;;21.10;64.10;;;;;;10498675;28;20413;-22
2023/04/23 11:33:11;;;;;;;;;;;20.30;70.90;;;;;;10490625;28;20040;-23
2023/04/23 11:38:13;;;;;;;5.97;1.58;;;20.60;63.30;;;;;;10481351;28;19964;-23
2023/04/23 11:43:19;;;;;;;6.00;1.58;;;21.60;62.10;;;;;;10474996;28;20052;-24
2023/04/23 11:48:24;;;;;;;5.95;1.85;;;21.30;65.00;;;;;;10490352;28;20054;-23
2023/04/23 11:53:25;;;;;;;6.55;1.50;;;21.00;67.20;;;;;;10490900;28;20053;-23
2023/04/23 11:58:27;;;;;;;6.60;1.50;;;21.10;66.20;;;;;;10492445;28;20056;-24
2023/04/23 12:03:31;;;;;;;6.35;2.17;;;22.00;62.00;;;;;;10483882;28;20044;-24
2023/04/23 12:08:34;;;;;;;6.55;1.70;;;22.10;61.10;;;;;;10500927;28;20101;-24
2023/04/23 12:13:41;;;;;;;3.05;1.40;;;22.00;59.80;;;;;;10491179;28;20469;-24
2023/04/23 12:18:44;;;;;;;4.47;1.60;;;21.90;62.80;;;;;;10476360;28;20085;-24
2023/04/23 12:23:51;;;;;;;7.38;2.53;;;21.50;65.60;;;;;;10492386;28;20144;-24
2023/04/23 12:28:55;;;;;;;7.03;2.30;;;20.70;68.60;;;;;;10484820;28;20041;-23
2023/04/23 12:34:02;;;;;;;10.63;3.35;;;19.60;71.40;;;;;;10470526;28;20053;-24
2023/04/23 12:39:20;;;;;;;12.68;2.65;;;19.00;83.90;;;;;;10478140;28;20385;-25
2023/04/23 12:44:22;;;;;;;9.13;2.25;;;16.70;99.10;;;;;;10506438;28;20127;-25
2023/04/23 12:49:26;;;;;;;4.25;1.80;;;16.20;99.90;;;;;;10475296;28;20072;-25
2023/04/23 12:54:30;;;;;;;4.28;1.90;;;20.60;80.60;;;;;;10484408;28;20052;-25
2023/04/23 12:59:32;;;;;;;3.17;1.73;;;21.30;71.20;;;;;;10492272;28;20064;-24
2023/04/23 13:04:36;;;;;;;2.42;1.40;;;21.70;66.50;;;;;;10488184;28;20049;-24
2023/04/23 13:09:38;;;;;;;6.05;2.17;;;21.90;65.00;;;;;;10487565;28;20135;-24
2023/04/23 13:14:39;;;;;;;5.90;1.95;;;22.20;64.60;;;;;;10470133;28;20136;-24
2023/04/23 13:19:43;;;;;;;5.18;1.65;;;22.10;67.30;;;;;;10488768;28;20059;-23
2023/04/23 13:24:45;;;;;;;4.03;1.73;;;22.20;63.60;;;;;;10502564;28;20048;-23
2023/04/23 13:29:47;;;;;;;3.22;1.95;;;22.20;63.30;;;;;;10467026;28;20056;-23
2023/04/23 13:34:50;;;;;;;12.00;6.95;;;22.40;63.20;;;;;;10485913;28;20036;-24
2023/04/23 13:39:52;;;;;;;54.63;31.95;;;22.40;63.80;;;;;;10485568;28;20394;-24
2023/04/23 13:44:54;;;;;;;85.88;50.78;;;22.30;64.90;;;;;;10508041;28;20507;-24
2023/04/23 13:49:57;;;;;;;8.00;2.80;;;22.10;65.20;;;;;;10514396;28;20086;-24
2023/04/23 13:55:02;;;;;;;50.45;26.67;;;19.80;73.80;;;;;;10491023;28;20048;-25
2023/04/23 14:00:04;;;;;;;81.63;46.70;;;20.20;83.80;;;;;;10493302;28;20497;-25
2023/04/23 14:05:08;;;;;;;13.88;6.55;;;21.00;90.60;;;;;;10488723;28;20505;-23
2023/04/23 14:10:11;;;;;;;13.95;8.10;;;19.80;78.70;;;;;;10484038;28;20477;-23
2023/04/23 14:15:13;;;;;;;98.30;55.25;;;20.90;67.00;;;;;;10494861;28;20041;-23
2023/04/23 14:20:18;;;;;;;116.13;69.90;;;21.10;71.50;;;;;;10484484;28;20052;-23
2023/04/23 14:25:29;;;;;;;102.63;62.20;;;21.80;72.50;;;;;;10495710;28;20095;-23
2023/04/23 14:30:31;;;;;;;137.20;80.65;;;21.90;69.70;;;;;;10486852;28;20469;-24
2023/04/23 14:35:35;;;;;;;115.75;63.53;;;22.00;69.70;;;;;;10499799;28;20382;-23
2023/04/23 14:40:37;;;;;;;80.15;44.83;;;21.70;70.50;;;;;;10487875;28;20147;-23
2023/04/23 14:45:40;;;;;;;48.40;29.77;;;22.10;68.40;;;;;;10504928;28;20151;-23
2023/04/23 14:50:43;;;;;;;42.17;22.92;;;22.10;68.10;;;;;;10498160;28;20055;-24
2023/04/23 14:55:45;;;;;;;30.27;16.40;;;22.20;67.50;;;;;;10504314;28;20714;-25
2023/04/23 15:00:48;;;;;;;32.17;17.15;;;21.90;73.70;;;;;;10510312;28;20091;-24
2023/04/23 15:05:51;;;;;;;20.52;11.73;;;22.30;68.50;;;;;;10488069;28;20055;-24
2023/04/23 15:10:53;;;;;;;16.10;9.68;;;21.80;70.80;;;;;;10507197;28;20611;-24
2023/04/23 15:15:58;;;;;;;14.75;9.52;;;22.10;68.70;;;;;;10497654;28;20147;-24
2023/04/23 15:21:02;;;;;;;15.77;8.88;;;22.40;67.60;;;;;;10492279;28;20106;-24
2023/04/23 15:26:04;;;;;;;12.15;6.85;;;22.40;67.30;;;;;;10483242;28;20047;-24
2023/04/23 15:31:06;;;;;;;11.23;6.38;;;22.40;66.80;;;;;;10496237;28;20057;-24
2023/04/23 15:36:09;;;;;;;;;;;22.40;66.20;;;;;;10502936;28;20124;-24
2023/04/23 15:41:11;;;;;;;9.45;5.43;;;22.50;66.20;;;;;;10487617;28;19936;-24
2023/04/23 15:46:13;;;;;;;;;;;22.20;67.20;;;;;;10481165;28;20040;-24
2023/04/23 15:51:16;;;;;;;8.93;5.40;;;22.40;65.90;;;;;;10479047;28;20806;-24
2023/04/23 15:56:18;;;;;;;11.68;5.82;;;22.50;65.00;;;;;;10490630;28;20284;-25
2023/04/23 16:01:20;;;;;;;9.00;5.25;;;22.40;64.60;;;;;;10499846;28;20064;-25
2023/04/23 16:06:23;;;;;;;6.60;4.00;;;22.30;65.40;;;;;;10476338;28;20767;-24
2023/04/23 16:11:27;;;;;;;6.82;3.53;;;22.10;65.50;;;;;;10470080;28;20106;-24
2023/04/23 16:16:29;;;;;;;6.72;3.17;;;22.20;65.00;;;;;;10478647;28;20118;-23
2023/04/23 16:21:32;;;;;;;10.32;6.10;;;22.20;64.70;;;;;;10480245;28;20057;-24
2023/04/23 16:26:35;;;;;;;27.27;17.05;;;22.10;65.40;;;;;;10476662;28;20400;-23
2023/04/23 16:31:37;;;;;;;35.05;21.50;;;22.20;65.60;;;;;;10484223;28;20044;-24
2023/04/23 16:36:40;;;;;;;38.00;22.65;;;22.20;65.60;;;;;;10475608;28;20143;-25
2023/04/23 16:41:42;;;;;;;55.35;30.75;;;22.20;65.80;;;;;;10479858;28;20048;-25
2023/04/23 16:46:44;;;;;;;55.08;34.45;;;22.20;66.00;;;;;;10482290;28;20040;-25
2023/04/23 16:51:47;;;;;;;64.40;36.70;;;22.10;66.40;;;;;;10477996;28;20072;-24
2023/04/23 16:56:49;;;;;;;57.67;36.22;;;22.20;66.00;;;;;;10484209;28;20045;-24
2023/04/23 17:01:51;;;;;;;;;;;22.20;65.90;;;;;;10481749;28;20048;-25
2023/04/23 17:06:54;;;;;;;62.13;36.57;;;21.90;67.90;;;;;;10466382;28;19971;-25
2023/04/23 17:11:56;;;;;;;59.88;37.00;;;21.90;68.50;;;;;;10475161;28;20045;-24
2023/04/23 17:16:58;;;;;;;51.60;32.13;;;21.80;68.80;;;;;;10494357;28;20135;-24
2023/04/23 17:22:02;;;;;;;39.22;23.88;;;21.90;68.40;;;;;;10494167;28;20554;-24
2023/04/23 17:27:04;;;;;;;37.88;24.15;;;21.60;69.00;;;;;;10498893;28;20076;-24
2023/04/23 17:32:05;;;;;;;;;;;21.60;70.20;;;;;;10494263;28;20090;-24
2023/04/23 17:37:09;;;;;;;24.63;15.63;;;21.90;72.60;;;;;;10492946;28;20023;-24
2023/04/23 17:42:12;;;;;;;23.38;14.15;;;21.80;69.30;;;;;;10470405;28;20141;-25
2023/04/23 17:47:14;;;;;;;19.90;11.05;;;21.90;67.90;;;;;;10488775;28;20481;-24
2023/04/23 17:52:17;;;;;;;15.63;9.75;;;21.80;68.50;;;;;;10507985;28;20459;-24
2023/04/23 17:57:19;;;;;;;17.98;10.45;;;21.70;68.80;;;;;;10491926;28;20505;-23
2023/04/23 18:02:21;;;;;;;14.13;7.85;;;21.80;68.00;;;;;;10482409;28;20155;-25
2023/04/23 18:07:24;;;;;;;14.20;8.38;;;22.00;66.50;;;;;;10487392;28;20164;-25
2023/04/23 18:12:26;;;;;;;11.48;7.05;;;22.10;65.90;;;;;;10475008;28;20076;-25
2023/04/23 18:17:28;;;;;;;10.68;6.70;;;22.10;65.90;;;;;;10477943;28;20068;-26
2023/04/23 18:22:31;;;;;;;8.60;6.07;;;22.10;65.80;;;;;;10486027;28;20810;-26
2023/04/23 18:27:33;;;;;;;10.40;5.95;;;22.00;66.40;;;;;;10497976;28;20087;-26
2023/04/23 18:32:37;;;;;;;10.35;6.05;;;22.10;65.80;;;;;;10496849;28;20052;-25
2023/04/23 18:37:43;;;;;;;8.40;4.93;;;22.10;65.80;;;;;;10481051;28;20041;-25
2023/04/23 18:42:45;;;;;;;7.28;4.40;;;22.00;65.80;;;;;;10494383;28;20052;-27
2023/04/23 18:47:51;;;;;;;11.60;4.40;;;22.00;65.80;;;;;;10487364;28;20044;-26
2023/04/23 18:52:55;;;;;;;5.75;3.55;;;21.90;66.30;;;;;;10487774;28;20560;-25
2023/04/23 18:57:57;;;;;;;7.82;3.90;;;22.00;66.40;;;;;;10494700;28;20063;-25
2023/04/23 19:02:59;;;;;;;5.03;3.38;;;22.00;66.10;;;;;;10490585;28;20044;-26
2023/04/23 19:08:02;;;;;;;7.25;3.20;;;22.00;65.90;;;;;;10491480;28;20718;-26
2023/04/23 19:13:04;;;;;;;6.53;3.15;;;22.00;66.00;;;;;;10491270;28;20550;-25
2023/04/23 19:18:06;;;;;;;8.30;3.50;;;22.00;65.70;;;;;;10496054;28;20045;-28
2023/04/23 19:23:09;;;;;;;7.07;3.10;;;21.90;65.80;;;;;;10484937;28;20093;-25
2023/04/23 19:28:12;;;;;;;14.40;4.88;;;22.00;65.60;;;;;;10484890;28;20056;-28
2023/04/23 19:33:14;;;;;;;8.88;2.28;;;22.00;65.60;;;;;;10493234;28;20102;-25
2023/04/23 19:38:17;;;;;;;;;;;21.90;65.70;;;;;;10483187;28;20409;-25
2023/04/23 19:43:19;;;;;;;8.75;3.13;;;21.90;65.60;;;;;;10488360;28;20031;-25
2023/04/23 19:48:21;;;;;;;6.57;2.63;;;21.90;65.50;;;;;;10487270;28;20056;-25
2023/04/23 19:53:25;;;;;;;;;;;21.80;65.90;;;;;;10489383;28;20087;-23
2023/04/23 19:58:26;;;;;;;10.07;3.83;;;21.90;65.70;;;;;;10484654;28;19924;-25
2023/04/23 20:03:28;;;;;;;10.35;3.10;;;21.90;65.50;;;;;;10491102;28;20139;-24
2023/04/23 20:08:40;;;;;;;4.80;2.60;;;21.90;65.50;;;;;;10490467;28;20056;-25
2023/04/23 20:13:42;;;;;;;6.32;3.05;;;21.90;65.40;;;;;;10485074;28;20588;-25
2023/04/23 20:18:46;;;;;;;8.63;3.70;;;21.80;65.50;;;;;;10477730;28;20146;-25
2023/04/23 20:23:49;;;;;;;9.15;3.05;;;21.80;65.60;;;;;;10476449;28;20044;-25
2023/04/23 20:28:51;;;;;;;6.70;3.15;;;21.80;65.50;;;;;;10494717;28;20055;-26
2023/04/23 20:33:53;;;;;;;13.20;4.03;;;21.80;65.70;;;;;;10488554;28;20093;-25
2023/04/23 20:38:57;;;;;;;9.27;3.88;;;21.70;66.20;;;;;;10485726;28;20044;-25
2023/04/23 20:44:00;;;;;;;12.63;4.10;;;21.80;65.80;;;;;;10484269;28;20056;-24
2023/04/23 20:49:03;;;;;;;11.75;4.30;;;21.80;65.80;;;;;;10511918;28;20515;-26
2023/04/23 20:54:08;;;;;;;11.15;4.15;;;21.80;65.70;;;;;;10487865;28;20049;-25
2023/04/23 20:59:11;;;;;;;9.30;3.80;;;21.60;66.40;;;;;;10502819;28;20052;-26
2023/04/23 21:04:13;;;;;;;10.32;2.53;;;20.60;70.50;;;;;;10491261;28;20118;-25
2023/04/23 21:09:17;;;;;;;9.57;2.40;;;15.00;99.90;;;;;;10488000;28;20055;-25
2023/04/23 21:14:19;;;;;;;13.25;2.85;;;14.10;99.90;;;;;;10494840;28;20044;-25
2023/04/23 21:19:21;;;;;;;12.10;2.30;;;13.40;99.90;;;;;;10502208;28;20512;-25
2023/04/23 21:24:24;;;;;;;5.43;1.63;;;15.50;99.90;;;;;;10491743;28;20056;-26
2023/04/23 21:29:27;;;;;;;14.85;1.52;;;13.40;99.90;;;;;;10493110;28;20075;-25
2023/04/23 21:34:29;;;;;;;;;;;14.70;99.90;;;;;;10490902;28;20048;-25
2023/04/23 21:39:33;;;;;;;23.33;2.83;;;14.70;99.90;;;;;;10503298;28;20015;-24
2023/04/23 21:44:35;;;;;;;17.92;2.20;;;11.60;99.90;;;;;;10480278;28;20049;-24
2023/04/23 21:49:49;;;;;;;10.80;1.58;;;10.70;99.90;;;;;;10493325;28;20447;-25
2023/04/23 21:54:53;;;;;;;6.93;1.48;;;11.60;99.90;;;;;;10477565;28;20362;-24
2023/04/23 21:59:55;;;;;;;7.55;1.67;;;11.30;99.90;;;;;;10491628;28;20122;-23
2023/04/23 22:04:59;;;;;;;8.52;1.10;;;11.80;99.90;;;;;;10483213;28;20131;-22
2023/04/23 22:10:02;;;;;;;11.23;1.48;;;11.70;99.90;;;;;;10484561;28;20079;-24
2023/04/23 22:15:05;;;;;;;13.43;1.20;;;12.10;99.90;;;;;;10495741;28;20044;-24
2023/04/23 22:20:11;;;;;;;7.88;1.92;;;12.10;99.90;;;;;;10486462;28;20488;-25
2023/04/23 22:25:33;;;;;;;5.80;1.10;;;12.30;99.90;;;;;;10484720;28;20051;-24
2023/04/23 22:30:35;;;;;;;4.25;0.95;;;12.80;99.90;;;;;;10482438;28;20134;-25
2023/04/23 22:35:38;;;;;;;4.57;1.00;;;11.90;99.90;;;;;;10486157;28;20049;-25
2023/04/23 22:40:42;;;;;;;6.90;1.25;;;11.60;99.90;;;;;;10494424;28;20473;-25
2023/04/23 22:45:45;;;;;;;9.30;1.38;;;12.00;99.90;;;;;;10491027;28;20082;-26
2023/04/23 22:50:49;;;;;;;;;;;11.10;99.90;;;;;;10484186;28;20040;-26
2023/04/23 22:55:52;;;;;;;6.88;1.77;;;11.10;99.90;;;;;;10496122;28;20024;-24
2023/04/23 23:00:55;;;;;;;2.17;1.30;;;11.50;99.90;;;;;;10491115;28;20583;-25
2023/04/23 23:05:57;;;;;;;9.00;1.38;;;12.40;99.90;;;;;;10487436;28;20044;-25
2023/04/23 23:11:00;;;;;;;5.47;1.30;;;11.30;99.90;;;;;;10477028;28;20448;-24
2023/04/23 23:16:04;;;;;;;7.28;1.58;;;12.70;99.90;;;;;;10464110;28;20815;-23
2023/04/23 23:21:07;;;;;;;8.95;1.65;;;11.70;99.90;;;;;;10488624;28;20044;-24
2023/04/23 23:26:11;;;;;;;5.60;1.50;;;12.60;99.90;;;;;;10501863;28;20040;-24
2023/04/23 23:31:14;;;;;;;5.75;1.33;;;12.20;99.90;;;;;;10505477;28;20052;-23
2023/04/23 23:36:17;;;;;;;4.15;1.38;;;12.00;99.90;;;;;;10492036;28;20041;-25
2023/04/23 23:41:20;;;;;;;;;;;12.10;99.90;;;;;;10489443;28;20779;-25
2023/04/23 23:46:22;;;;;;;3.70;1.02;;;12.20;99.90;;;;;;10481411;28;19925;-24
2023/04/23 23:51:24;;;;;;;7.23;1.00;;;11.40;99.90;;;;;;10500500;28;20550;-26
2023/04/23 23:56:27;;;;;;;1.70;0.93;;;11.90;99.90;;;;;;10490076;28;20147;-24
